East Townsend, Ohio
Current Conditions -  °F | °C
As of 1:53 PM on Friday 21 Nov 2014 (Local Time) from KLPR Reporting Station
Broken Clouds Broken Clouds  
Wind Chill: 14°   Ceiling: 3800
Heat Index: 24°   Visibility: 10mi
Dew Point: 10°   Wind: 10mph
Humidity: 55%   Direction: 250°WSW
Pressure: 30.48"   Gusts: NA
Location:  41.2571°N, 82.4875°W
Report Text: KLPR 211853Z AUTO 25009KT 10SM BKN038 M04/M12 A3048 RMK AO2 SLP336 T10441122 TSNO
Loading
Personal Weather Stations






























Interactive Weather Map New forecast layout! Learn more

10-Day Weather Forecast

Advertisements
Track Severe Weather on mobile